Time;durP1;ratioP1;P1;durP2;ratioP2;P2;SDS_P1;SDS_P2;PMS_P1;PMS_P2;Temp;Humidity;BMP_temperature;BMP_pressure;BME280_temperature;BME280_humidity;BME280_pressure;Samples;Min_cycle;Max_cycle;Signal;HPM_P1;HPM_P2
2022/07/12 00:01:50;;;;;;;4.47;2.80;;;16.20;99.90;;;;;;5069684;28;20711;-48
2022/07/12 00:04:15;;;;;;;4.20;3.10;;;16.20;99.90;;;;;;5050719;28;20041;-49
2022/07/12 00:06:42;;;;;;;4.82;2.95;;;16.10;99.90;;;;;;5069601;28;20542;-49
2022/07/12 00:09:07;;;;;;;4.97;3.03;;;16.10;99.90;;;;;;5069468;28;20089;-50
2022/07/12 00:11:35;;;;;;;4.80;3.13;;;16.10;99.90;;;;;;5070146;28;20484;-48
2022/07/12 00:14:01;;;;;;;5.60;3.25;;;16.10;99.90;;;;;;5070412;28;20068;-48
2022/07/12 00:16:26;;;;;;;4.40;3.15;;;16.00;99.90;;;;;;5070619;28;20079;-47
2022/07/12 00:18:53;;;;;;;5.03;3.30;;;15.90;99.90;;;;;;5069144;28;20045;-50
2022/07/12 00:21:19;;;;;;;4.55;3.33;;;15.90;99.90;;;;;;5070097;28;20044;-47
2022/07/12 00:23:45;;;;;;;4.82;3.30;;;15.80;99.90;;;;;;5070202;28;20488;-48
2022/07/12 00:26:11;;;;;;;4.93;3.60;;;15.80;99.90;;;;;;5070167;28;20483;-49
2022/07/12 00:28:37;;;;;;;5.15;3.40;;;15.90;99.90;;;;;;5069668;28;20041;-48
2022/07/12 00:31:03;;;;;;;5.18;3.83;;;15.90;99.90;;;;;;5069088;28;20114;-49
2022/07/12 00:33:29;;;;;;;5.55;3.33;;;16.00;99.90;;;;;;5070275;28;20043;-49
2022/07/12 00:35:54;;;;;;;5.57;3.45;;;15.90;99.90;;;;;;5069929;28;20395;-50
2022/07/12 00:38:20;;;;;;;5.20;3.47;;;15.80;99.90;;;;;;5035343;28;20392;-47
2022/07/12 00:40:46;;;;;;;6.35;3.78;;;15.80;99.90;;;;;;5070097;28;20110;-51
2022/07/12 00:43:12;;;;;;;4.80;3.70;;;15.90;99.90;;;;;;5070085;28;20044;-49
2022/07/12 00:45:37;;;;;;;6.35;4.13;;;15.80;99.90;;;;;;5070067;28;20036;-51
2022/07/12 00:48:04;;;;;;;5.90;3.63;;;15.80;99.90;;;;;;5069802;28;20526;-51
2022/07/12 00:50:30;;;;;;;4.80;3.00;;;15.80;99.90;;;;;;5069753;28;20044;-49
2022/07/12 00:52:55;;;;;;;4.93;3.25;;;15.70;99.90;;;;;;5069718;28;20032;-49
2022/07/12 00:55:23;;;;;;;4.20;3.15;;;15.70;99.90;;;;;;5035429;28;20044;-48
2022/07/12 00:57:49;;;;;;;4.35;2.95;;;15.70;99.90;;;;;;5069473;28;20446;-48
2022/07/12 01:00:22;;;;;;;4.47;2.90;;;15.60;99.90;;;;;;5051893;28;20044;-49
2022/07/12 01:02:49;;;;;;;5.13;3.00;;;15.60;99.90;;;;;;5070198;28;20182;-48
2022/07/12 01:05:15;;;;;;;5.60;3.17;;;15.50;99.90;;;;;;5068068;28;20056;-51
2022/07/12 01:07:41;;;;;;;4.82;3.28;;;15.40;99.90;;;;;;5069856;28;20028;-47
2022/07/12 01:10:07;;;;;;;4.40;3.03;;;15.40;99.90;;;;;;5070699;28;20066;-51
2022/07/12 01:12:33;;;;;;;4.47;2.95;;;15.40;99.90;;;;;;5073702;28;20082;-50
2022/07/12 01:15:00;;;;;;;5.15;3.05;;;15.40;99.90;;;;;;5073525;28;20040;-49
2022/07/12 01:17:27;;;;;;;4.22;2.92;;;15.40;99.90;;;;;;5073379;28;20040;-48
2022/07/12 01:19:55;;;;;;;4.90;2.83;;;15.30;99.90;;;;;;5073355;28;20079;-52
2022/07/12 01:22:35;;;;;;;4.72;3.10;;;15.20;99.90;;;;;;5073253;28;20048;-51
2022/07/12 01:25:03;;;;;;;3.90;2.80;;;15.30;99.90;;;;;;5073449;28;20518;-50
2022/07/12 01:27:30;;;;;;;4.40;3.10;;;15.20;99.90;;;;;;5073188;28;20122;-50
2022/07/12 01:29:56;;;;;;;5.57;3.38;;;15.10;99.90;;;;;;5072709;28;20098;-50
2022/07/12 01:32:24;;;;;;;4.60;3.15;;;15.20;99.90;;;;;;5072830;28;20395;-48
2022/07/12 01:35:00;;;;;;;4.10;3.08;;;15.30;99.90;;;;;;5072947;28;20119;-50
2022/07/12 01:37:28;;;;;;;4.38;2.83;;;15.20;99.90;;;;;;5073551;28;20063;-49
2022/07/12 01:39:56;;;;;;;4.82;3.25;;;15.30;99.90;;;;;;5072957;28;20076;-48
2022/07/12 01:42:23;;;;;;;4.45;3.20;;;15.20;99.90;;;;;;5073259;28;20032;-51
2022/07/12 01:44:50;;;;;;;4.70;3.20;;;15.10;99.90;;;;;;5072752;28;20052;-46
2022/07/12 01:47:17;;;;;;;4.90;3.22;;;15.10;99.90;;;;;;5038489;28;20052;-48
2022/07/12 01:49:43;;;;;;;4.05;3.00;;;15.10;99.90;;;;;;5054720;28;20052;-51
2022/07/12 01:52:09;;;;;;;4.40;2.92;;;15.00;99.90;;;;;;5073010;28;20040;-51
2022/07/12 01:54:35;;;;;;;4.40;2.92;;;15.00;99.90;;;;;;5072532;28;20036;-49
2022/07/12 01:57:05;;;;;;;4.80;3.20;;;14.90;99.90;;;;;;5072505;28;20049;-48
2022/07/12 01:59:31;;;;;;;4.78;2.78;;;14.90;99.90;;;;;;5072550;28;20123;-47
2022/07/12 02:01:58;;;;;;;5.07;3.58;;;14.90;99.90;;;;;;5072929;28;20036;-51
2022/07/12 02:04:24;;;;;;;6.13;3.50;;;14.90;99.90;;;;;;5072405;28;20041;-49
2022/07/12 02:06:50;;;;;;;5.40;3.25;;;14.90;99.90;;;;;;5072777;28;20048;-51
2022/07/12 02:09:16;;;;;;;5.72;3.33;;;14.90;99.90;;;;;;5072372;28;20037;-50
2022/07/12 02:11:43;;;;;;;4.38;3.08;;;14.80;99.90;;;;;;5054481;28;20076;-50
2022/07/12 02:14:10;;;;;;;4.10;2.90;;;14.80;99.90;;;;;;5072287;28;20044;-49
2022/07/12 02:16:35;;;;;;;4.72;3.13;;;14.80;99.90;;;;;;5072638;28;20040;-48
2022/07/12 02:19:02;;;;;;;4.20;2.92;;;14.90;99.90;;;;;;5072485;28;20057;-49
2022/07/12 02:21:27;;;;;;;4.57;3.15;;;14.90;99.90;;;;;;5071926;28;20036;-51
2022/07/12 02:23:53;;;;;;;5.50;3.55;;;14.80;99.90;;;;;;5072432;28;20062;-48
2022/07/12 02:26:19;;;;;;;6.82;3.83;;;14.80;99.90;;;;;;5071954;28;20047;-48
2022/07/12 02:28:46;;;;;;;5.85;3.10;;;14.80;99.90;;;;;;5071751;28;20040;-49
2022/07/12 02:31:11;;;;;;;4.78;3.22;;;14.70;99.90;;;;;;5072056;28;20033;-47
2022/07/12 02:33:37;;;;;;;5.15;3.38;;;14.70;99.90;;;;;;5071735;28;20040;-48
2022/07/12 02:36:03;;;;;;;5.03;3.28;;;14.60;99.90;;;;;;5072148;28;20454;-50
2022/07/12 02:38:29;;;;;;;5.05;3.42;;;14.50;99.90;;;;;;5053895;28;20487;-50
2022/07/12 02:40:55;;;;;;;5.65;3.35;;;14.50;99.90;;;;;;5071771;28;20047;-50
2022/07/12 02:43:28;;;;;;;5.28;3.38;;;14.50;99.90;;;;;;5071968;28;20048;-47
2022/07/12 02:46:02;;;;;;;5.35;3.08;;;14.40;99.90;;;;;;5071766;28;20028;-50
2022/07/12 02:48:28;;;;;;;5.63;3.67;;;14.50;99.90;;;;;;5053701;28;20051;-50
2022/07/12 02:50:54;;;;;;;4.30;2.78;;;14.60;99.90;;;;;;5071660;28;20540;-48
2022/07/12 02:53:20;;;;;;;6.10;2.85;;;14.50;99.90;;;;;;5053956;28;20040;-51
2022/07/12 02:55:46;;;;;;;5.40;3.08;;;14.40;99.90;;;;;;5071868;28;20029;-51
2022/07/12 02:58:14;;;;;;;7.78;2.85;;;14.40;99.90;;;;;;5070808;28;20070;-48
2022/07/12 03:00:41;;;;;;;7.60;3.00;;;14.40;99.90;;;;;;5071779;28;20094;-49
2022/07/12 03:03:07;;;;;;;4.10;2.58;;;14.40;99.90;;;;;;5071394;28;20123;-50
2022/07/12 03:05:36;;;;;;;5.20;2.70;;;14.30;99.90;;;;;;5071303;28;20044;-49
2022/07/12 03:08:05;;;;;;;4.15;2.80;;;14.40;99.90;;;;;;5070969;28;20043;-50
2022/07/12 03:10:31;;;;;;;6.80;3.55;;;14.30;99.90;;;;;;5071302;28;20041;-50
2022/07/12 03:12:57;;;;;;;4.07;2.83;;;14.20;99.90;;;;;;5071376;28;20090;-48
2022/07/12 03:15:23;;;;;;;6.90;2.67;;;14.40;99.90;;;;;;5071002;28;20181;-49
2022/07/12 03:17:48;;;;;;;3.30;2.40;;;14.30;99.90;;;;;;5071168;28;20046;-47
2022/07/12 03:20:14;;;;;;;4.00;2.83;;;14.30;99.90;;;;;;5071312;28;20062;-51
2022/07/12 03:22:46;;;;;;;3.50;2.33;;;14.40;99.90;;;;;;5071060;28;20040;-50
2022/07/12 03:25:12;;;;;;;3.80;2.55;;;14.30;99.90;;;;;;5071224;28;20040;-48
2022/07/12 03:27:39;;;;;;;4.20;2.65;;;14.30;99.90;;;;;;5071147;28;20029;-47
2022/07/12 03:30:06;;;;;;;3.90;2.47;;;14.40;99.90;;;;;;5070789;28;20067;-50
2022/07/12 03:32:32;;;;;;;3.70;2.58;;;14.30;99.90;;;;;;5070543;28;20119;-51
2022/07/12 03:34:58;;;;;;;3.97;2.63;;;14.20;99.90;;;;;;5070821;28;20606;-50
2022/07/12 03:37:23;;;;;;;3.60;2.60;;;14.30;99.90;;;;;;5071259;28;20036;-49
2022/07/12 03:39:49;;;;;;;3.95;2.70;;;14.10;99.90;;;;;;5070560;28;20083;-51
2022/07/12 03:42:15;;;;;;;4.63;2.88;;;14.20;99.90;;;;;;5070964;28;20086;-49
2022/07/12 03:44:41;;;;;;;4.15;2.65;;;14.30;99.90;;;;;;5070439;28;20040;-50
2022/07/12 03:47:07;;;;;;;4.45;3.00;;;14.20;99.90;;;;;;5070456;28;20040;-48
2022/07/12 03:49:32;;;;;;;4.57;3.13;;;14.20;99.90;;;;;;5070932;28;20037;-50
2022/07/12 03:51:58;;;;;;;4.75;2.80;;;14.20;99.90;;;;;;5071010;28;20062;-49
2022/07/12 03:54:24;;;;;;;4.07;2.97;;;14.10;99.90;;;;;;5070419;28;20040;-48
2022/07/12 03:59:34;;;;;;;;;;;14.10;99.90;;;;;;5070896;28;20097;-49
2022/07/12 04:02:01;;;;;;;4.38;3.03;;;14.20;99.90;;;;;;5070377;28;19928;-49
2022/07/12 04:04:28;;;;;;;4.10;2.90;;;14.20;99.90;;;;;;5070979;28;20044;-48
2022/07/12 04:06:53;;;;;;;5.10;3.28;;;14.20;99.90;;;;;;5070941;28;20090;-51
2022/07/12 04:09:19;;;;;;;4.93;3.25;;;14.10;99.90;;;;;;5069921;28;20044;-50
2022/07/12 04:11:45;;;;;;;4.43;3.30;;;14.10;99.90;;;;;;5069985;28;20115;-49
2022/07/12 04:14:10;;;;;;;5.07;3.22;;;14.20;99.90;;;;;;5070259;28;20032;-48
2022/07/12 04:16:36;;;;;;;4.25;3.15;;;14.10;99.90;;;;;;5070610;28;20045;-47
2022/07/12 04:19:02;;;;;;;4.55;3.40;;;14.20;99.90;;;;;;5070527;28;20048;-51
2022/07/12 04:21:27;;;;;;;4.90;3.40;;;14.20;99.90;;;;;;5070408;28;20041;-50
2022/07/12 04:23:53;;;;;;;5.25;2.97;;;14.30;99.90;;;;;;5070275;28;20116;-47
2022/07/12 04:26:19;;;;;;;4.50;3.17;;;14.30;99.90;;;;;;5070618;28;20078;-48
2022/07/12 04:28:44;;;;;;;4.35;3.20;;;14.30;99.90;;;;;;5070202;28;20119;-49
2022/07/12 04:31:10;;;;;;;4.45;3.22;;;14.30;99.90;;;;;;5070177;28;20114;-49
2022/07/12 04:33:36;;;;;;;4.75;3.50;;;14.30;99.90;;;;;;5070375;28;20391;-51
2022/07/12 04:36:02;;;;;;;5.10;3.10;;;14.30;99.90;;;;;;5070245;28;20047;-49
2022/07/12 04:38:27;;;;;;;4.68;3.33;;;14.40;99.90;;;;;;5070407;28;20044;-50
2022/07/12 04:40:53;;;;;;;4.55;3.13;;;14.40;99.90;;;;;;5070509;28;20036;-49
2022/07/12 04:43:19;;;;;;;4.30;3.38;;;14.50;99.90;;;;;;5070629;28;20047;-50
2022/07/12 04:45:44;;;;;;;4.22;3.17;;;14.50;99.90;;;;;;5072148;28;20483;-50
2022/07/12 04:48:13;;;;;;;4.45;3.42;;;14.50;99.90;;;;;;5074213;28;20106;-49
2022/07/12 04:50:39;;;;;;;4.28;3.47;;;14.60;99.90;;;;;;5055581;28;20043;-48
2022/07/12 04:53:05;;;;;;;5.15;4.10;;;14.60;99.90;;;;;;5073807;28;20033;-47
2022/07/12 04:55:30;;;;;;;4.47;3.40;;;14.60;99.90;;;;;;5073555;28;20119;-50
2022/07/12 04:57:56;;;;;;;4.80;3.75;;;14.60;99.90;;;;;;5073821;28;20141;-46
2022/07/12 05:00:22;;;;;;;4.97;3.80;;;14.70;99.90;;;;;;5073526;28;20029;-50
2022/07/12 05:02:48;;;;;;;5.45;4.30;;;14.80;99.90;;;;;;5074118;28;20407;-50
2022/07/12 05:05:14;;;;;;;6.10;4.82;;;15.00;99.90;;;;;;5073372;28;20086;-49
2022/07/12 05:07:41;;;;;;;6.38;5.13;;;14.90;99.90;;;;;;5073426;28;20040;-48
2022/07/12 05:10:07;;;;;;;6.82;4.85;;;15.00;99.90;;;;;;5073247;28;20037;-49
2022/07/12 05:12:34;;;;;;;7.35;5.15;;;15.10;99.90;;;;;;5073729;28;20082;-48
2022/07/12 05:15:00;;;;;;;6.20;5.38;;;15.20;99.90;;;;;;5073375;28;20534;-46
2022/07/12 05:17:26;;;;;;;5.90;5.07;;;15.30;99.90;;;;;;5073742;28;20037;-51
2022/07/12 05:19:51;;;;;;;6.22;5.10;;;15.30;99.90;;;;;;5055564;28;20074;-49
2022/07/12 05:22:17;;;;;;;5.93;4.93;;;15.40;99.90;;;;;;5073545;28;20425;-49
2022/07/12 05:24:43;;;;;;;7.22;5.57;;;15.50;99.90;;;;;;5073505;28;20036;-49
2022/07/12 05:27:09;;;;;;;5.72;4.65;;;15.40;99.90;;;;;;5073420;28;20531;-48
2022/07/12 05:29:35;;;;;;;6.00;5.10;;;15.50;99.90;;;;;;5073147;28;20041;-49
2022/07/12 05:32:01;;;;;;;5.78;4.72;;;15.60;99.90;;;;;;5073403;28;20051;-50
2022/07/12 05:34:27;;;;;;;6.88;4.90;;;15.50;99.90;;;;;;5073464;28;20029;-49
2022/07/12 05:36:53;;;;;;;6.10;4.82;;;15.50;99.90;;;;;;5073318;28;20485;-48
2022/07/12 05:39:19;;;;;;;6.65;5.07;;;15.60;99.90;;;;;;5073150;28;20056;-47
2022/07/12 05:41:46;;;;;;;6.82;4.90;;;15.60;99.90;;;;;;5073395;28;20392;-47
2022/07/12 05:44:12;;;;;;;7.07;4.80;;;15.70;99.90;;;;;;5073313;28;20123;-50
2022/07/12 05:46:40;;;;;;;6.18;5.10;;;15.70;99.90;;;;;;5073039;28;20429;-48
2022/07/12 05:49:06;;;;;;;5.95;5.32;;;15.70;99.90;;;;;;5073075;28;20052;-47
2022/07/12 05:54:17;;;;;;;7.20;5.85;;;15.90;99.90;;;;;;5072936;28;20054;-48
2022/07/12 05:56:43;;;;;;;8.70;6.38;;;15.80;99.90;;;;;;5072327;28;20052;-48
2022/07/12 05:59:09;;;;;;;6.97;5.82;;;15.90;99.90;;;;;;5072275;28;20404;-45
2022/07/12 06:01:34;;;;;;;6.95;5.63;;;16.00;99.90;;;;;;5072807;28;20062;-50
2022/07/12 06:04:01;;;;;;;7.72;5.63;;;16.10;99.90;;;;;;5072514;28;20040;-48
2022/07/12 06:06:26;;;;;;;6.95;5.57;;;16.10;99.90;;;;;;5072861;28;20044;-50
2022/07/12 06:08:52;;;;;;;8.35;5.68;;;16.20;99.90;;;;;;5072227;28;20043;-48
2022/07/12 06:11:18;;;;;;;6.75;5.78;;;16.10;99.90;;;;;;5072489;28;20090;-51
2022/07/12 06:13:43;;;;;;;7.25;5.40;;;16.20;99.90;;;;;;5072728;28;20537;-48
2022/07/12 06:16:10;;;;;;;7.85;6.32;;;16.30;99.90;;;;;;5071268;28;20041;-48
2022/07/12 06:18:36;;;;;;;7.00;5.78;;;16.40;99.90;;;;;;5072457;28;20055;-50
2022/07/12 06:21:02;;;;;;;8.68;6.07;;;16.40;99.90;;;;;;5070850;28;20131;-48
2022/07/12 06:23:28;;;;;;;7.40;6.05;;;16.60;99.90;;;;;;5072452;28;20124;-48
2022/07/12 06:25:53;;;;;;;7.25;6.03;;;16.50;99.90;;;;;;5072403;28;20495;-49
2022/07/12 06:28:19;;;;;;;8.38;6.63;;;16.70;99.90;;;;;;5071522;28;20055;-49
2022/07/12 06:30:45;;;;;;;7.30;6.20;;;16.60;99.90;;;;;;5071956;28;20028;-48
2022/07/12 06:33:10;;;;;;;8.35;6.40;;;16.70;99.90;;;;;;5071856;28;20037;-47
2022/07/12 06:35:36;;;;;;;7.10;6.13;;;16.80;99.90;;;;;;5054170;28;20082;-49
2022/07/12 06:38:02;;;;;;;7.20;6.30;;;16.90;99.90;;;;;;5053903;28;20043;-50
2022/07/12 06:40:29;;;;;;;11.93;6.00;;;16.90;99.90;;;;;;5071685;28;20032;-49
2022/07/12 06:42:54;;;;;;;8.57;6.70;;;17.10;99.90;;;;;;5053979;28;20047;-48
2022/07/12 06:45:20;;;;;;;7.22;6.07;;;17.10;99.90;;;;;;5071725;28;20029;-48
2022/07/12 06:47:45;;;;;;;8.50;5.80;;;17.30;99.90;;;;;;5067023;28;20068;-50
2022/07/12 06:50:11;;;;;;;7.13;5.85;;;17.50;99.90;;;;;;5030185;28;20051;-52
2022/07/12 06:52:37;;;;;;;7.53;5.65;;;17.50;99.90;;;;;;5063503;28;20405;-47
2022/07/12 06:55:03;;;;;;;10.82;6.00;;;17.50;99.90;;;;;;5063539;28;20090;-48
2022/07/12 06:57:30;;;;;;;7.97;6.30;;;17.60;99.90;;;;;;5063015;28;20091;-51
2022/07/12 06:59:58;;;;;;;6.63;5.53;;;17.60;99.90;;;;;;5063318;28;20047;-49
2022/07/12 07:02:24;;;;;;;6.97;6.07;;;17.70;99.90;;;;;;5045952;28;20409;-47
2022/07/12 07:04:50;;;;;;;7.10;6.38;;;18.00;99.90;;;;;;5063522;28;20078;-50
2022/07/12 07:07:16;;;;;;;6.97;6.07;;;18.00;99.90;;;;;;5062931;28;20059;-48
2022/07/12 07:09:41;;;;;;;7.07;6.00;;;18.10;99.90;;;;;;5029583;28;20135;-48
2022/07/12 07:12:07;;;;;;;8.32;5.82;;;18.10;99.90;;;;;;5063567;28;20533;-51
2022/07/12 07:14:33;;;;;;;6.72;5.65;;;18.20;99.90;;;;;;5045833;28;20033;-52
2022/07/12 07:16:59;;;;;;;8.32;6.22;;;18.10;99.90;;;;;;5063093;28;20049;-48
2022/07/12 07:19:26;;;;;;;6.75;5.50;;;18.20;99.90;;;;;;5061615;28;20579;-49
2022/07/12 07:21:52;;;;;;;7.15;6.18;;;18.20;99.90;;;;;;5063230;28;20086;-50
2022/07/12 07:24:18;;;;;;;7.13;6.03;;;18.30;99.90;;;;;;5063539;28;20687;-50
2022/07/12 07:26:43;;;;;;;7.47;5.68;;;18.30;99.90;;;;;;5065168;28;20044;-51
2022/07/12 07:31:53;;;;;;;6.80;5.95;;;18.60;99.90;;;;;;5062974;28;21522;-49
2022/07/12 07:34:19;;;;;;;7.20;6.38;;;18.60;99.90;;;;;;5063124;28;20123;-49
2022/07/12 07:36:44;;;;;;;6.47;5.88;;;18.80;99.90;;;;;;5062922;28;20076;-49
2022/07/12 07:39:12;;;;;;;6.47;5.30;;;19.00;99.90;;;;;;5062727;28;20040;-49
2022/07/12 07:41:37;;;;;;;7.15;4.90;;;19.20;99.90;;;;;;5062879;28;20071;-50
2022/07/12 07:44:03;;;;;;;8.45;5.28;;;19.30;99.90;;;;;;5063411;28;20115;-50
2022/07/12 07:46:29;;;;;;;6.80;5.40;;;19.50;99.90;;;;;;5062545;28;20082;-50
2022/07/12 07:48:55;;;;;;;5.53;4.45;;;19.60;99.90;;;;;;5062274;28;20042;-48
2022/07/12 07:51:20;;;;;;;6.10;4.57;;;19.80;99.90;;;;;;5062892;28;20047;-50
2022/07/12 07:53:46;;;;;;;5.88;4.88;;;20.00;99.90;;;;;;5045566;28;20460;-52
2022/07/12 07:56:11;;;;;;;4.97;3.85;;;20.00;99.90;;;;;;5063138;28;20040;-52
2022/07/12 07:58:37;;;;;;;5.15;4.13;;;20.10;99.90;;;;;;5062448;28;20506;-50
2022/07/12 08:01:03;;;;;;;7.80;4.00;;;20.20;99.90;;;;;;5062666;28;20037;-49
2022/07/12 08:03:29;;;;;;;5.45;4.50;;;20.30;99.90;;;;;;5062701;28;20438;-51
2022/07/12 08:05:57;;;;;;;6.30;4.15;;;20.20;99.90;;;;;;5062967;28;20046;-50
2022/07/12 08:08:23;;;;;;;6.95;4.45;;;20.20;99.90;;;;;;5062762;28;20106;-52
2022/07/12 08:10:51;;;;;;;5.30;3.92;;;20.40;99.90;;;;;;5062721;28;20032;-53
2022/07/12 08:13:17;;;;;;;6.32;4.45;;;20.40;99.90;;;;;;5062761;28;20115;-50
2022/07/12 08:15:43;;;;;;;6.05;4.80;;;20.40;99.90;;;;;;5059654;28;20481;-49
2022/07/12 08:18:08;;;;;;;5.47;4.38;;;20.50;99.90;;;;;;5059960;28;20483;-49
2022/07/12 08:20:34;;;;;;;5.80;4.55;;;20.50;99.90;;;;;;5063693;28;20033;-51
2022/07/12 08:23:00;;;;;;;8.05;4.28;;;20.40;99.90;;;;;;5064406;28;20063;-49
2022/07/12 08:25:26;;;;;;;5.90;4.35;;;20.40;99.90;;;;;;5063966;28;20036;-48
2022/07/12 08:27:51;;;;;;;5.43;4.15;;;20.40;99.90;;;;;;5063790;28;20444;-50
2022/07/12 08:30:17;;;;;;;6.13;4.25;;;20.30;99.90;;;;;;5062850;28;20048;-52
2022/07/12 08:32:44;;;;;;;5.45;4.28;;;20.40;99.90;;;;;;5063685;28;20112;-52
2022/07/12 08:35:10;;;;;;;7.15;4.95;;;20.30;99.90;;;;;;5052294;28;20119;-50
2022/07/12 08:37:35;;;;;;;7.30;4.50;;;20.30;99.90;;;;;;5058460;28;20111;-51
2022/07/12 08:40:01;;;;;;;9.90;4.45;;;20.40;99.90;;;;;;5062292;28;20038;-51
2022/07/12 08:42:26;;;;;;;6.38;3.83;;;20.30;99.90;;;;;;5060603;28;20066;-51
2022/07/12 08:44:57;;;;;;;5.35;4.00;;;20.40;99.90;;;;;;5075526;28;20040;-49
2022/07/12 08:47:23;;;;;;;5.15;3.88;;;20.60;99.90;;;;;;5059422;28;20646;-52
2022/07/12 08:50:16;;;;;;;7.18;4.63;;;20.80;99.90;;;;;;5045740;28;20052;-48
2022/07/12 08:52:53;;;;;;;9.20;3.95;;;20.90;99.90;;;;;;5045204;28;20128;-52
2022/07/12 08:55:19;;;;;;;6.88;4.78;;;20.90;99.90;;;;;;5062476;28;20147;-51
2022/07/12 08:57:45;;;;;;;7.00;5.05;;;21.00;99.90;;;;;;5062679;28;20078;-50
2022/07/12 09:00:11;;;;;;;6.10;4.72;;;21.00;99.90;;;;;;5052596;28;20686;-52
2022/07/12 09:03:03;;;;;;;7.03;5.03;;;21.10;99.90;;;;;;5061554;28;20427;-53
2022/07/12 09:05:31;;;;;;;6.53;5.13;;;21.20;99.90;;;;;;5058699;28;20039;-48
2022/07/12 09:08:08;;;;;;;6.75;5.40;;;21.30;99.90;;;;;;5061881;28;20056;-50
2022/07/12 09:10:54;;;;;;;7.57;4.65;;;21.60;99.90;;;;;;5061833;28;20041;-50
2022/07/12 09:13:40;;;;;;;5.63;4.00;;;21.80;99.90;;;;;;5050035;28;20052;-52
2022/07/12 09:16:14;;;;;;;9.05;4.53;;;22.10;99.90;;;;;;5057209;28;21069;-49
2022/07/12 09:18:40;;;;;;;5.20;4.20;;;22.30;99.90;;;;;;5061065;28;20055;-48
2022/07/12 09:21:06;;;;;;;5.30;3.85;;;22.30;99.90;;;;;;5061540;28;20032;-49
2022/07/12 09:23:32;;;;;;;5.40;3.35;;;22.60;99.90;;;;;;5050284;28;20123;-49
2022/07/12 09:25:57;;;;;;;14.43;3.58;;;22.70;99.90;;;;;;5062661;28;20040;-52
2022/07/12 09:28:23;;;;;;;9.65;3.67;;;22.90;99.90;;;;;;5062047;28;20036;-52
2022/07/12 09:30:53;;;;;;;7.32;3.88;;;22.80;99.90;;;;;;5050409;28;20068;-51
2022/07/12 09:36:06;;;;;;;5.57;2.50;;;22.90;99.90;;;;;;5061907;28;20039;-50
2022/07/12 09:38:33;;;;;;;3.50;2.00;;;23.10;99.90;;;;;;5035007;28;20165;-49
2022/07/12 09:41:00;;;;;;;4.82;2.42;;;23.50;99.90;;;;;;5058382;28;20490;-49
2022/07/12 09:43:26;;;;;;;4.85;2.50;;;23.40;99.90;;;;;;5062006;28;20040;-51
2022/07/12 09:45:52;;;;;;;3.08;1.65;;;23.40;99.90;;;;;;5060904;28;20442;-50
2022/07/12 09:48:22;;;;;;;4.68;2.40;;;23.50;99.90;;;;;;5059929;28;20036;-48
2022/07/12 09:50:50;;;;;;;4.45;1.95;;;23.50;99.90;;;;;;5061095;28;20067;-52
2022/07/12 09:53:31;;;;;;;4.35;2.30;;;23.50;99.90;;;;;;5060339;28;20436;-51
2022/07/12 09:55:58;;;;;;;3.70;2.58;;;23.60;99.90;;;;;;5062001;28;20033;-52
2022/07/12 09:58:27;;;;;;;5.97;3.22;;;23.50;99.90;;;;;;5060294;28;20504;-51
2022/07/12 10:00:59;;;;;;;5.30;2.53;;;23.60;99.90;;;;;;5060249;28;20082;-49
2022/07/12 10:03:27;;;;;;;5.75;2.08;;;23.70;99.90;;;;;;5059772;28;20045;-50
2022/07/12 10:05:54;;;;;;;4.30;2.47;;;23.80;99.90;;;;;;5058820;28;20032;-51
2022/07/12 10:08:21;;;;;;;2.53;1.60;;;23.70;99.90;;;;;;5063315;28;20152;-47
2022/07/12 10:10:49;;;;;;;3.83;1.30;;;23.90;99.90;;;;;;5064346;28;20555;-46
2022/07/12 10:13:18;;;;;;;12.75;2.00;;;24.00;99.90;;;;;;5063260;28;20043;-49
2022/07/12 10:15:46;;;;;;;6.63;1.92;;;24.10;99.90;;;;;;5062881;28;20048;-52
2022/07/12 10:18:20;;;;;;;3.15;1.92;;;24.30;99.90;;;;;;5064420;28;20383;-49
2022/07/12 10:20:50;;;;;;;4.22;2.30;;;24.40;99.90;;;;;;5064166;28;20040;-48
2022/07/12 10:23:34;;;;;;;5.00;2.30;;;24.50;99.90;;;;;;5067709;28;20043;-49
2022/07/12 10:26:00;;;;;;;;;;;24.30;99.90;;;;;;5069140;28;20040;-50
2022/07/12 10:29:05;;;;;;;4.65;1.63;;;24.20;99.90;;;;;;5069414;28;20291;-51
2022/07/12 10:31:35;;;;;;;2.70;1.80;;;24.10;99.90;;;;;;4983781;28;20134;-50
2022/07/12 10:34:11;;;;;;;3.35;1.73;;;24.00;99.90;;;;;;4979842;28;20042;-49
2022/07/12 10:36:55;;;;;;;6.18;2.20;;;24.10;99.90;;;;;;5025833;28;20045;-48
2022/07/12 10:39:21;;;;;;;9.00;1.92;;;24.10;99.90;;;;;;5068249;28;20558;-51
2022/07/12 10:42:17;;;;;;;6.10;1.73;;;24.20;99.90;;;;;;5065378;28;20506;-50
2022/07/12 10:44:47;;;;;;;4.50;1.77;;;24.30;99.90;;;;;;5045364;28;20480;-52
2022/07/12 10:47:15;;;;;;;3.00;1.77;;;24.70;99.90;;;;;;5067923;28;20043;-51
2022/07/12 10:49:52;;;;;;;2.88;1.42;;;24.90;99.90;;;;;;5066192;28;20045;-50
2022/07/12 10:52:26;;;;;;;3.20;1.63;;;24.70;99.90;;;;;;5064615;28;20033;-52
2022/07/12 10:54:54;;;;;;;3.85;2.20;;;24.60;99.90;;;;;;5069034;28;20044;-48
2022/07/12 10:57:43;;;;;;;4.03;2.47;;;24.60;99.90;;;;;;5067995;28;20084;-50
2022/07/12 11:00:14;;;;;;;3.72;1.88;;;24.60;99.90;;;;;;5064281;28;21201;-50
2022/07/12 11:02:40;;;;;;;3.88;2.20;;;24.60;99.90;;;;;;5080843;28;20157;-53
2022/07/12 11:05:06;;;;;;;4.38;1.75;;;24.40;99.90;;;;;;5048922;28;20131;-48
2022/07/12 11:07:33;;;;;;;3.47;2.00;;;24.40;99.90;;;;;;5065776;28;20551;-52
2022/07/12 11:09:58;;;;;;;4.50;1.90;;;24.60;99.90;;;;;;5063019;28;20059;-52
2022/07/12 11:12:31;;;;;;;4.35;1.85;;;24.80;99.90;;;;;;5067531;28;20041;-48
2022/07/12 11:14:59;;;;;;;3.78;1.52;;;25.20;99.90;;;;;;5066550;28;20037;-51
2022/07/12 11:17:30;;;;;;;2.97;1.67;;;25.20;99.90;;;;;;5062786;28;20032;-51
2022/07/12 11:20:11;;;;;;;3.58;1.98;;;25.50;99.90;;;;;;5068673;28;20125;-51
2022/07/12 11:22:38;;;;;;;5.63;2.45;;;25.60;99.90;;;;;;5065965;28;20045;-50
2022/07/12 11:25:07;;;;;;;4.78;2.05;;;25.50;99.90;;;;;;5063716;28;20037;-48
2022/07/12 11:27:33;;;;;;;3.00;1.50;;;25.80;99.90;;;;;;5069765;28;20041;-52
2022/07/12 11:30:00;;;;;;;3.88;1.73;;;25.90;99.90;;;;;;5051045;28;20072;-51
2022/07/12 11:32:47;;;;;;;3.40;2.03;;;25.80;99.90;;;;;;5070192;28;20151;-51
2022/07/12 11:35:23;;;;;;;3.70;2.22;;;26.00;99.90;;;;;;5067450;28;20067;-52
2022/07/12 11:37:54;;;;;;;5.57;2.00;;;26.30;99.90;;;;;;5050904;28;20454;-50
2022/07/12 11:40:24;;;;;;;2.78;1.70;;;26.50;99.90;;;;;;5064210;28;20768;-52
2022/07/12 11:42:58;;;;;;;3.90;1.90;;;26.50;99.90;;;;;;5067504;28;20036;-52
2022/07/12 11:45:25;;;;;;;2.83;1.23;;;26.80;99.90;;;;;;5066855;28;20127;-52
2022/07/12 11:47:52;;;;;;;2.55;1.30;;;26.90;99.90;;;;;;5070634;28;20071;-52
2022/07/12 11:50:19;;;;;;;2.35;1.10;;;26.90;99.90;;;;;;5070160;28;20036;-49
2022/07/12 11:52:46;;;;;;;2.42;1.23;;;27.00;99.90;;;;;;5070532;28;20115;-51
2022/07/12 11:55:11;;;;;;;3.08;1.30;;;27.00;99.90;;;;;;5052396;28;20043;-51
2022/07/12 11:57:37;;;;;;;5.18;1.20;;;26.90;99.90;;;;;;5070512;28;20048;-52
2022/07/12 12:00:21;;;;;;;5.75;1.30;;;27.10;99.90;;;;;;5070168;28;20515;-50
2022/07/12 12:02:51;;;;;;;3.20;1.13;;;27.10;99.90;;;;;;5071039;28;20119;-49
2022/07/12 12:05:18;;;;;;;4.03;1.25;;;27.30;99.90;;;;;;5070489;28;20089;-51
2022/07/12 12:07:44;;;;;;;2.85;1.02;;;27.30;99.90;;;;;;5071018;28;20052;-51
2022/07/12 12:10:14;;;;;;;2.38;1.00;;;27.30;99.90;;;;;;5035614;28;20170;-51
2022/07/12 12:12:48;;;;;;;1.83;0.80;;;27.30;99.90;;;;;;5070365;28;20032;-50
2022/07/12 12:15:17;;;;;;;1.50;0.80;;;27.60;99.90;;;;;;5070537;28;20043;-52
2022/07/12 12:18:05;;;;;;;1.65;0.80;;;27.70;99.90;;;;;;5070363;28;20044;-51
2022/07/12 12:20:35;;;;;;;3.67;0.85;;;27.90;99.90;;;;;;5070793;28;20037;-50
2022/07/12 12:23:03;;;;;;;1.23;0.57;;;28.20;99.90;;;;;;5036567;28;20041;-48
2022/07/12 12:25:30;;;;;;;1.73;0.60;;;28.00;99.90;;;;;;5070514;28;20036;-52
2022/07/12 12:28:03;;;;;;;1.77;0.50;;;28.10;99.90;;;;;;5070631;28;20036;-52
2022/07/12 12:30:31;;;;;;;1.08;0.52;;;28.30;99.90;;;;;;5070135;28;20044;-49
2022/07/12 12:33:01;;;;;;;1.05;0.50;;;28.60;99.90;;;;;;5070128;28;20071;-52
2022/07/12 12:35:38;;;;;;;2.03;0.55;;;28.80;99.90;;;;;;5070294;28;20051;-53
2022/07/12 12:38:14;;;;;;;1.20;0.30;;;28.50;98.10;;;;;;5070332;28;20036;-51
2022/07/12 12:40:49;;;;;;;1.42;0.47;;;28.70;99.00;;;;;;5070545;28;20044;-52
2022/07/12 12:43:18;;;;;;;2.38;0.40;;;29.00;99.80;;;;;;5070271;28;20067;-49
2022/07/12 12:45:55;;;;;;;0.90;0.40;;;28.90;98.30;;;;;;5070256;28;20076;-49
2022/07/12 12:48:23;;;;;;;1.60;0.40;;;29.10;97.20;;;;;;5070124;28;20107;-53
2022/07/12 12:50:51;;;;;;;0.60;0.30;;;29.10;97.00;;;;;;5070374;28;20132;-49
2022/07/12 12:53:24;;;;;;;1.98;0.47;;;29.00;97.10;;;;;;5070337;28;20480;-50
2022/07/12 12:55:54;;;;;;;2.20;0.50;;;28.80;96.40;;;;;;5069997;28;20047;-50
2022/07/12 12:58:22;;;;;;;2.63;0.70;;;29.10;97.70;;;;;;5070499;28;20048;-53
2022/07/12 13:00:49;;;;;;;1.42;0.45;;;28.90;97.20;;;;;;5070008;28;20047;-52
2022/07/12 13:03:20;;;;;;;15.48;0.95;;;28.60;96.80;;;;;;5070004;28;20522;-52